sensor_id;sensor_type;location;lat;lon;timestamp;temperature;humidity
23377;DHT22;14353;46.070;13.222;2023-08-24T00:01:36;34.80;47.00
23377;DHT22;14353;46.070;13.222;2023-08-24T00:04:02;34.80;47.00
23377;DHT22;14353;46.070;13.222;2023-08-24T00:06:28;34.80;47.00
23377;DHT22;14353;46.070;13.222;2023-08-24T00:08:53;34.80;47.00
23377;DHT22;14353;46.070;13.222;2023-08-24T00:11:19;34.90;47.10
23377;DHT22;14353;46.070;13.222;2023-08-24T00:13:45;34.80;47.10
23377;DHT22;14353;46.070;13.222;2023-08-24T00:16:19;34.90;47.10
23377;DHT22;14353;46.070;13.222;2023-08-24T00:18:45;34.80;47.10
23377;DHT22;14353;46.070;13.222;2023-08-24T00:21:13;34.80;47.10
23377;DHT22;14353;46.070;13.222;2023-08-24T00:23:42;34.80;47.10
23377;DHT22;14353;46.070;13.222;2023-08-24T00:26:08;34.80;47.10
23377;DHT22;14353;46.070;13.222;2023-08-24T00:28:34;34.80;47.10
23377;DHT22;14353;46.070;13.222;2023-08-24T00:31:00;34.80;47.10
23377;DHT22;14353;46.070;13.222;2023-08-24T00:33:26;34.80;47.10
23377;DHT22;14353;46.070;13.222;2023-08-24T00:35:52;34.80;47.20
23377;DHT22;14353;46.070;13.222;2023-08-24T00:38:17;34.80;47.10
23377;DHT22;14353;46.070;13.222;2023-08-24T00:40:43;34.80;47.10
23377;DHT22;14353;46.070;13.222;2023-08-24T00:43:09;34.80;47.10
23377;DHT22;14353;46.070;13.222;2023-08-24T00:45:35;34.80;47.10
23377;DHT22;14353;46.070;13.222;2023-08-24T00:48:02;34.80;47.10
23377;DHT22;14353;46.070;13.222;2023-08-24T00:50:28;34.70;47.00
23377;DHT22;14353;46.070;13.222;2023-08-24T00:52:54;34.70;47.00
23377;DHT22;14353;46.070;13.222;2023-08-24T00:55:20;34.70;47.10
23377;DHT22;14353;46.070;13.222;2023-08-24T00:57:47;34.80;47.20
23377;DHT22;14353;46.070;13.222;2023-08-24T01:00:14;34.70;47.10
23377;DHT22;14353;46.070;13.222;2023-08-24T01:02:40;34.70;47.10
23377;DHT22;14353;46.070;13.222;2023-08-24T01:05:06;34.70;47.10
23377;DHT22;14353;46.070;13.222;2023-08-24T01:07:34;34.70;47.10
23377;DHT22;14353;46.070;13.222;2023-08-24T01:10:03;34.70;47.10
23377;DHT22;14353;46.070;13.222;2023-08-24T01:17:50;34.70;47.10
23377;DHT22;14353;46.070;13.222;2023-08-24T01:20:18;34.70;47.10
23377;DHT22;14353;46.070;13.222;2023-08-24T01:25:42;34.70;47.10
23377;DHT22;14353;46.070;13.222;2023-08-24T01:28:08;34.70;47.20
23377;DHT22;14353;46.070;13.222;2023-08-24T01:30:34;34.70;47.10
23377;DHT22;14353;46.070;13.222;2023-08-24T01:33:03;34.70;47.20
23377;DHT22;14353;46.070;13.222;2023-08-24T01:35:37;34.70;47.20
23377;DHT22;14353;46.070;13.222;2023-08-24T01:38:03;34.70;47.20
23377;DHT22;14353;46.070;13.222;2023-08-24T01:43:15;34.70;47.20
23377;DHT22;14353;46.070;13.222;2023-08-24T01:45:44;34.70;47.10
23377;DHT22;14353;46.070;13.222;2023-08-24T01:48:10;34.70;47.20
23377;DHT22;14353;46.070;13.222;2023-08-24T01:50:37;34.70;47.20
23377;DHT22;14353;46.070;13.222;2023-08-24T01:53:03;34.70;47.20
23377;DHT22;14353;46.070;13.222;2023-08-24T01:55:29;34.70;47.20
23377;DHT22;14353;46.070;13.222;2023-08-24T01:57:55;34.70;47.20
23377;DHT22;14353;46.070;13.222;2023-08-24T02:00:22;34.70;47.20
23377;DHT22;14353;46.070;13.222;2023-08-24T02:02:48;34.70;47.20
23377;DHT22;14353;46.070;13.222;2023-08-24T02:05:13;34.70;47.20
23377;DHT22;14353;46.070;13.222;2023-08-24T02:07:39;34.70;47.20
23377;DHT22;14353;46.070;13.222;2023-08-24T02:10:08;34.70;47.30
23377;DHT22;14353;46.070;13.222;2023-08-24T02:12:34;34.70;47.20
23377;DHT22;14353;46.070;13.222;2023-08-24T02:14:59;34.70;47.30
23377;DHT22;14353;46.070;13.222;2023-08-24T02:17:26;34.60;47.20
23377;DHT22;14353;46.070;13.222;2023-08-24T02:19:52;34.60;47.20
23377;DHT22;14353;46.070;13.222;2023-08-24T02:22:18;34.60;47.20
23377;DHT22;14353;46.070;13.222;2023-08-24T02:24:43;34.60;47.30
23377;DHT22;14353;46.070;13.222;2023-08-24T02:27:09;34.60;47.20
23377;DHT22;14353;46.070;13.222;2023-08-24T02:29:34;34.60;47.20
23377;DHT22;14353;46.070;13.222;2023-08-24T02:32:01;34.60;47.30
23377;DHT22;14353;46.070;13.222;2023-08-24T02:34:27;34.60;47.20
23377;DHT22;14353;46.070;13.222;2023-08-24T02:36:52;34.60;47.20
23377;DHT22;14353;46.070;13.222;2023-08-24T02:39:18;34.60;47.20
23377;DHT22;14353;46.070;13.222;2023-08-24T02:41:44;34.60;47.20
23377;DHT22;14353;46.070;13.222;2023-08-24T02:44:09;34.60;47.30
23377;DHT22;14353;46.070;13.222;2023-08-24T02:46:35;34.60;47.30
23377;DHT22;14353;46.070;13.222;2023-08-24T02:49:01;34.60;47.30
23377;DHT22;14353;46.070;13.222;2023-08-24T02:51:26;34.60;47.30
23377;DHT22;14353;46.070;13.222;2023-08-24T02:53:52;34.60;47.30
23377;DHT22;14353;46.070;13.222;2023-08-24T02:56:18;34.60;47.30
23377;DHT22;14353;46.070;13.222;2023-08-24T02:58:43;34.60;47.30
23377;DHT22;14353;46.070;13.222;2023-08-24T03:01:09;34.60;47.30
23377;DHT22;14353;46.070;13.222;2023-08-24T03:03:36;34.50;47.30
23377;DHT22;14353;46.070;13.222;2023-08-24T03:06:06;34.50;47.30
23377;DHT22;14353;46.070;13.222;2023-08-24T03:08:33;34.50;47.30
23377;DHT22;14353;46.070;13.222;2023-08-24T03:11:00;34.50;47.30
23377;DHT22;14353;46.070;13.222;2023-08-24T03:13:26;34.50;47.30
23377;DHT22;14353;46.070;13.222;2023-08-24T03:15:52;34.50;47.40
23377;DHT22;14353;46.070;13.222;2023-08-24T03:18:18;34.50;47.40
23377;DHT22;14353;46.070;13.222;2023-08-24T03:20:45;34.50;47.40
23377;DHT22;14353;46.070;13.222;2023-08-24T03:23:11;34.50;47.40
23377;DHT22;14353;46.070;13.222;2023-08-24T03:25:39;34.50;47.40
23377;DHT22;14353;46.070;13.222;2023-08-24T03:28:06;34.50;47.40
23377;DHT22;14353;46.070;13.222;2023-08-24T03:30:39;34.40;47.40
23377;DHT22;14353;46.070;13.222;2023-08-24T03:33:05;34.40;48.00
23377;DHT22;14353;46.070;13.222;2023-08-24T03:35:32;34.50;47.40
23377;DHT22;14353;46.070;13.222;2023-08-24T03:37:58;34.40;47.40
23377;DHT22;14353;46.070;13.222;2023-08-24T03:40:24;34.40;47.40
23377;DHT22;14353;46.070;13.222;2023-08-24T03:42:53;34.40;47.40
23377;DHT22;14353;46.070;13.222;2023-08-24T03:45:19;34.40;47.40
23377;DHT22;14353;46.070;13.222;2023-08-24T03:47:45;34.40;47.40
23377;DHT22;14353;46.070;13.222;2023-08-24T03:50:11;34.40;47.40
23377;DHT22;14353;46.070;13.222;2023-08-24T03:52:36;34.40;47.40
23377;DHT22;14353;46.070;13.222;2023-08-24T03:55:02;34.40;47.40
23377;DHT22;14353;46.070;13.222;2023-08-24T03:57:28;34.40;47.50
23377;DHT22;14353;46.070;13.222;2023-08-24T03:59:54;34.40;47.40
23377;DHT22;14353;46.070;13.222;2023-08-24T04:02:19;34.40;47.50
23377;DHT22;14353;46.070;13.222;2023-08-24T04:04:46;34.40;47.50
23377;DHT22;14353;46.070;13.222;2023-08-24T04:07:11;34.40;47.50
23377;DHT22;14353;46.070;13.222;2023-08-24T04:09:37;34.40;47.50
23377;DHT22;14353;46.070;13.222;2023-08-24T04:12:03;34.40;47.50
23377;DHT22;14353;46.070;13.222;2023-08-24T04:14:29;34.40;47.50
23377;DHT22;14353;46.070;13.222;2023-08-24T04:16:54;34.40;47.50
23377;DHT22;14353;46.070;13.222;2023-08-24T04:19:21;34.40;47.50
23377;DHT22;14353;46.070;13.222;2023-08-24T04:21:47;34.30;47.50
23377;DHT22;14353;46.070;13.222;2023-08-24T04:24:12;34.30;47.50
23377;DHT22;14353;46.070;13.222;2023-08-24T04:26:38;34.30;47.50
23377;DHT22;14353;46.070;13.222;2023-08-24T04:29:04;34.30;47.50
23377;DHT22;14353;46.070;13.222;2023-08-24T04:31:29;34.30;47.50
23377;DHT22;14353;46.070;13.222;2023-08-24T04:33:55;34.30;47.50
23377;DHT22;14353;46.070;13.222;2023-08-24T04:36:21;34.30;47.50
23377;DHT22;14353;46.070;13.222;2023-08-24T04:38:46;34.30;47.50
23377;DHT22;14353;46.070;13.222;2023-08-24T04:41:12;34.30;47.50
23377;DHT22;14353;46.070;13.222;2023-08-24T04:43:38;34.30;47.50
23377;DHT22;14353;46.070;13.222;2023-08-24T04:46:04;34.30;47.50
23377;DHT22;14353;46.070;13.222;2023-08-24T04:48:30;34.30;47.50
23377;DHT22;14353;46.070;13.222;2023-08-24T04:50:59;34.30;47.50
23377;DHT22;14353;46.070;13.222;2023-08-24T04:53:26;34.30;47.50
23377;DHT22;14353;46.070;13.222;2023-08-24T04:55:52;34.30;47.50
23377;DHT22;14353;46.070;13.222;2023-08-24T04:58:18;34.30;47.50
23377;DHT22;14353;46.070;13.222;2023-08-24T05:00:44;34.30;47.50
23377;DHT22;14353;46.070;13.222;2023-08-24T05:03:10;34.30;47.50
23377;DHT22;14353;46.070;13.222;2023-08-24T05:05:36;34.30;47.50
23377;DHT22;14353;46.070;13.222;2023-08-24T05:08:04;34.30;47.50
23377;DHT22;14353;46.070;13.222;2023-08-24T05:10:36;34.30;47.50
23377;DHT22;14353;46.070;13.222;2023-08-24T05:13:02;34.30;47.50
23377;DHT22;14353;46.070;13.222;2023-08-24T05:15:29;34.30;47.50
23377;DHT22;14353;46.070;13.222;2023-08-24T05:17:55;34.30;47.50
23377;DHT22;14353;46.070;13.222;2023-08-24T05:20:28;34.30;47.50
23377;DHT22;14353;46.070;13.222;2023-08-24T05:22:54;34.30;47.50
23377;DHT22;14353;46.070;13.222;2023-08-24T05:25:23;34.30;47.40
23377;DHT22;14353;46.070;13.222;2023-08-24T05:27:49;34.30;47.40
23377;DHT22;14353;46.070;13.222;2023-08-24T05:30:15;34.30;47.40
23377;DHT22;14353;46.070;13.222;2023-08-24T05:32:41;34.30;47.40
23377;DHT22;14353;46.070;13.222;2023-08-24T05:35:07;34.30;47.30
23377;DHT22;14353;46.070;13.222;2023-08-24T05:37:34;34.30;47.40
23377;DHT22;14353;46.070;13.222;2023-08-24T05:40:01;34.30;47.30
23377;DHT22;14353;46.070;13.222;2023-08-24T05:42:27;34.30;47.30
23377;DHT22;14353;46.070;13.222;2023-08-24T05:44:53;34.30;47.30
23377;DHT22;14353;46.070;13.222;2023-08-24T05:47:18;34.30;47.30
23377;DHT22;14353;46.070;13.222;2023-08-24T05:49:44;34.30;47.30
23377;DHT22;14353;46.070;13.222;2023-08-24T05:52:10;34.30;47.30
23377;DHT22;14353;46.070;13.222;2023-08-24T05:54:37;34.30;47.30
23377;DHT22;14353;46.070;13.222;2023-08-24T05:57:03;34.30;47.20
23377;DHT22;14353;46.070;13.222;2023-08-24T05:59:29;34.30;47.20
23377;DHT22;14353;46.070;13.222;2023-08-24T06:01:55;34.30;47.20
23377;DHT22;14353;46.070;13.222;2023-08-24T06:04:21;34.30;47.20
23377;DHT22;14353;46.070;13.222;2023-08-24T06:06:47;34.30;47.20
23377;DHT22;14353;46.070;13.222;2023-08-24T06:09:12;34.30;47.20
23377;DHT22;14353;46.070;13.222;2023-08-24T06:11:38;34.30;47.20
23377;DHT22;14353;46.070;13.222;2023-08-24T06:14:06;34.30;47.20
23377;DHT22;14353;46.070;13.222;2023-08-24T06:16:31;34.40;47.30
23377;DHT22;14353;46.070;13.222;2023-08-24T06:18:57;34.40;47.30
23377;DHT22;14353;46.070;13.222;2023-08-24T06:21:26;34.40;47.20
23377;DHT22;14353;46.070;13.222;2023-08-24T06:23:52;34.40;47.20
23377;DHT22;14353;46.070;13.222;2023-08-24T06:26:18;34.40;47.20
23377;DHT22;14353;46.070;13.222;2023-08-24T06:28:43;34.40;47.20
23377;DHT22;14353;46.070;13.222;2023-08-24T06:31:09;34.40;47.20
23377;DHT22;14353;46.070;13.222;2023-08-24T06:33:35;34.40;47.20
23377;DHT22;14353;46.070;13.222;2023-08-24T06:36:02;34.40;47.10
23377;DHT22;14353;46.070;13.222;2023-08-24T06:38:30;34.40;47.10
23377;DHT22;14353;46.070;13.222;2023-08-24T06:40:57;34.40;47.10
23377;DHT22;14353;46.070;13.222;2023-08-24T06:43:23;34.40;47.10
23377;DHT22;14353;46.070;13.222;2023-08-24T06:45:50;34.40;47.10
23377;DHT22;14353;46.070;13.222;2023-08-24T06:48:15;34.40;47.00
23377;DHT22;14353;46.070;13.222;2023-08-24T06:50:43;34.40;47.00
23377;DHT22;14353;46.070;13.222;2023-08-24T06:53:09;34.40;47.00
23377;DHT22;14353;46.070;13.222;2023-08-24T06:55:35;34.40;47.00
23377;DHT22;14353;46.070;13.222;2023-08-24T06:58:02;34.40;47.00
23377;DHT22;14353;46.070;13.222;2023-08-24T07:00:30;34.40;47.00
23377;DHT22;14353;46.070;13.222;2023-08-24T07:02:56;34.40;47.00
23377;DHT22;14353;46.070;13.222;2023-08-24T07:05:22;34.40;47.00
23377;DHT22;14353;46.070;13.222;2023-08-24T07:07:52;34.40;46.90
23377;DHT22;14353;46.070;13.222;2023-08-24T07:10:19;34.50;46.90
23377;DHT22;14353;46.070;13.222;2023-08-24T07:12:45;34.50;46.90
23377;DHT22;14353;46.070;13.222;2023-08-24T07:15:12;34.50;46.90
23377;DHT22;14353;46.070;13.222;2023-08-24T07:17:38;34.50;46.80
23377;DHT22;14353;46.070;13.222;2023-08-24T07:20:04;34.50;46.80
23377;DHT22;14353;46.070;13.222;2023-08-24T07:22:31;34.50;46.80
23377;DHT22;14353;46.070;13.222;2023-08-24T07:24:57;34.50;46.80
23377;DHT22;14353;46.070;13.222;2023-08-24T07:27:23;34.50;46.80
23377;DHT22;14353;46.070;13.222;2023-08-24T07:29:49;34.50;46.80
23377;DHT22;14353;46.070;13.222;2023-08-24T07:32:14;34.50;46.80
23377;DHT22;14353;46.070;13.222;2023-08-24T07:34:40;34.60;46.80
23377;DHT22;14353;46.070;13.222;2023-08-24T07:37:06;34.60;46.80
23377;DHT22;14353;46.070;13.222;2023-08-24T07:39:32;34.60;46.70
23377;DHT22;14353;46.070;13.222;2023-08-24T07:41:59;34.60;46.70
23377;DHT22;14353;46.070;13.222;2023-08-24T07:44:24;34.60;46.70
23377;DHT22;14353;46.070;13.222;2023-08-24T07:46:50;34.60;46.60
23377;DHT22;14353;46.070;13.222;2023-08-24T07:49:16;34.60;46.60
23377;DHT22;14353;46.070;13.222;2023-08-24T07:51:41;34.60;46.60
23377;DHT22;14353;46.070;13.222;2023-08-24T07:54:08;34.70;46.60
23377;DHT22;14353;46.070;13.222;2023-08-24T07:56:34;34.70;46.50
23377;DHT22;14353;46.070;13.222;2023-08-24T07:59:01;34.70;46.50
23377;DHT22;14353;46.070;13.222;2023-08-24T08:01:27;34.70;46.40
23377;DHT22;14353;46.070;13.222;2023-08-24T08:03:53;34.70;46.30
23377;DHT22;14353;46.070;13.222;2023-08-24T08:06:18;34.70;46.20
23377;DHT22;14353;46.070;13.222;2023-08-24T08:08:44;34.70;46.20
23377;DHT22;14353;46.070;13.222;2023-08-24T08:11:12;34.70;46.20
23377;DHT22;14353;46.070;13.222;2023-08-24T08:13:37;34.70;46.20
23377;DHT22;14353;46.070;13.222;2023-08-24T08:16:07;34.70;46.20
23377;DHT22;14353;46.070;13.222;2023-08-24T08:18:34;34.80;46.20
23377;DHT22;14353;46.070;13.222;2023-08-24T08:21:00;34.80;46.10
23377;DHT22;14353;46.070;13.222;2023-08-24T08:23:26;34.80;46.10
23377;DHT22;14353;46.070;13.222;2023-08-24T08:25:52;34.80;46.10
23377;DHT22;14353;46.070;13.222;2023-08-24T08:28:18;34.80;46.10
23377;DHT22;14353;46.070;13.222;2023-08-24T08:30:44;34.80;46.10
23377;DHT22;14353;46.070;13.222;2023-08-24T08:33:10;34.80;46.10
23377;DHT22;14353;46.070;13.222;2023-08-24T08:35:37;34.80;46.00
23377;DHT22;14353;46.070;13.222;2023-08-24T08:38:05;34.90;46.00
23377;DHT22;14353;46.070;13.222;2023-08-24T08:40:31;34.90;46.00
23377;DHT22;14353;46.070;13.222;2023-08-24T08:42:59;34.90;46.00
23377;DHT22;14353;46.070;13.222;2023-08-24T08:45:25;34.80;45.90
23377;DHT22;14353;46.070;13.222;2023-08-24T08:47:56;34.80;45.90
23377;DHT22;14353;46.070;13.222;2023-08-24T08:50:22;34.90;45.90
23377;DHT22;14353;46.070;13.222;2023-08-24T08:52:47;34.90;45.90
23377;DHT22;14353;46.070;13.222;2023-08-24T08:55:13;34.80;45.90
23377;DHT22;14353;46.070;13.222;2023-08-24T08:57:41;34.90;45.90
23377;DHT22;14353;46.070;13.222;2023-08-24T09:00:12;34.90;45.90
23377;DHT22;14353;46.070;13.222;2023-08-24T09:02:43;34.90;45.90
23377;DHT22;14353;46.070;13.222;2023-08-24T09:05:10;35.00;45.90
23377;DHT22;14353;46.070;13.222;2023-08-24T09:07:39;34.90;45.90
23377;DHT22;14353;46.070;13.222;2023-08-24T09:10:05;34.90;45.80
23377;DHT22;14353;46.070;13.222;2023-08-24T09:12:33;34.90;45.80
23377;DHT22;14353;46.070;13.222;2023-08-24T09:14:58;35.00;45.80
23377;DHT22;14353;46.070;13.222;2023-08-24T09:17:24;35.00;45.80
23377;DHT22;14353;46.070;13.222;2023-08-24T09:19:51;35.00;45.70
23377;DHT22;14353;46.070;13.222;2023-08-24T09:22:19;35.00;45.70
23377;DHT22;14353;46.070;13.222;2023-08-24T09:24:48;35.00;45.70
23377;DHT22;14353;46.070;13.222;2023-08-24T09:27:17;35.00;45.70
23377;DHT22;14353;46.070;13.222;2023-08-24T09:29:47;35.00;45.70
23377;DHT22;14353;46.070;13.222;2023-08-24T09:32:13;35.00;45.70
23377;DHT22;14353;46.070;13.222;2023-08-24T09:34:39;35.00;45.70
23377;DHT22;14353;46.070;13.222;2023-08-24T09:37:11;35.00;45.60
23377;DHT22;14353;46.070;13.222;2023-08-24T09:39:38;35.00;45.70
23377;DHT22;14353;46.070;13.222;2023-08-24T09:42:03;35.00;45.60
23377;DHT22;14353;46.070;13.222;2023-08-24T09:44:30;35.10;45.70
23377;DHT22;14353;46.070;13.222;2023-08-24T09:46:55;35.10;45.60
23377;DHT22;14353;46.070;13.222;2023-08-24T09:49:21;35.10;45.60
23377;DHT22;14353;46.070;13.222;2023-08-24T09:51:48;35.10;45.60
23377;DHT22;14353;46.070;13.222;2023-08-24T09:54:16;35.10;45.60
23377;DHT22;14353;46.070;13.222;2023-08-24T09:56:42;35.10;45.50
23377;DHT22;14353;46.070;13.222;2023-08-24T09:59:18;35.10;45.60
23377;DHT22;14353;46.070;13.222;2023-08-24T10:01:46;35.10;45.50
23377;DHT22;14353;46.070;13.222;2023-08-24T10:04:17;35.10;45.50
23377;DHT22;14353;46.070;13.222;2023-08-24T10:06:48;35.10;45.50
23377;DHT22;14353;46.070;13.222;2023-08-24T10:09:35;35.10;45.50
23377;DHT22;14353;46.070;13.222;2023-08-24T10:12:04;35.10;45.40
23377;DHT22;14353;46.070;13.222;2023-08-24T10:14:47;35.20;45.50
23377;DHT22;14353;46.070;13.222;2023-08-24T10:17:18;35.20;45.40
23377;DHT22;14353;46.070;13.222;2023-08-24T10:19:46;35.20;45.40
23377;DHT22;14353;46.070;13.222;2023-08-24T10:22:12;35.20;46.10
23377;DHT22;14353;46.070;13.222;2023-08-24T10:24:39;35.30;45.50
23377;DHT22;14353;46.070;13.222;2023-08-24T10:27:05;35.30;45.50
23377;DHT22;14353;46.070;13.222;2023-08-24T10:29:34;35.30;45.40
23377;DHT22;14353;46.070;13.222;2023-08-24T10:32:01;35.20;45.30
23377;DHT22;14353;46.070;13.222;2023-08-24T10:34:28;35.30;45.30
23377;DHT22;14353;46.070;13.222;2023-08-24T10:36:53;35.30;45.30
23377;DHT22;14353;46.070;13.222;2023-08-24T10:39:27;35.30;45.30
23377;DHT22;14353;46.070;13.222;2023-08-24T10:41:53;35.30;45.20
23377;DHT22;14353;46.070;13.222;2023-08-24T10:44:40;35.40;45.30
23377;DHT22;14353;46.070;13.222;2023-08-24T10:49:43;35.40;45.20
23377;DHT22;14353;46.070;13.222;2023-08-24T10:52:23;35.40;45.10
23377;DHT22;14353;46.070;13.222;2023-08-24T10:54:53;35.40;45.10
23377;DHT22;14353;46.070;13.222;2023-08-24T10:57:24;35.40;45.10
23377;DHT22;14353;46.070;13.222;2023-08-24T11:00:06;35.50;45.10
23377;DHT22;14353;46.070;13.222;2023-08-24T11:05:29;35.50;45.10
23377;DHT22;14353;46.070;13.222;2023-08-24T11:08:02;35.50;45.00
23377;DHT22;14353;46.070;13.222;2023-08-24T11:13:07;35.50;44.90
23377;DHT22;14353;46.070;13.222;2023-08-24T11:15:36;35.60;45.00
23377;DHT22;14353;46.070;13.222;2023-08-24T11:21:01;35.70;44.90
23377;DHT22;14353;46.070;13.222;2023-08-24T11:23:27;35.60;44.80
23377;DHT22;14353;46.070;13.222;2023-08-24T11:25:54;35.70;44.80
23377;DHT22;14353;46.070;13.222;2023-08-24T11:28:23;35.70;44.70
23377;DHT22;14353;46.070;13.222;2023-08-24T11:30:49;35.70;44.70
23377;DHT22;14353;46.070;13.222;2023-08-24T11:33:32;35.70;44.60
23377;DHT22;14353;46.070;13.222;2023-08-24T11:36:00;35.70;44.60
23377;DHT22;14353;46.070;13.222;2023-08-24T11:38:38;35.70;44.60
23377;DHT22;14353;46.070;13.222;2023-08-24T11:41:14;35.80;44.60
23377;DHT22;14353;46.070;13.222;2023-08-24T11:43:41;35.80;44.50
23377;DHT22;14353;46.070;13.222;2023-08-24T11:46:07;35.80;44.50
23377;DHT22;14353;46.070;13.222;2023-08-24T11:48:33;35.80;44.50
23377;DHT22;14353;46.070;13.222;2023-08-24T11:50:59;35.80;44.50
23377;DHT22;14353;46.070;13.222;2023-08-24T11:53:24;35.90;44.50
23377;DHT22;14353;46.070;13.222;2023-08-24T11:55:54;35.90;44.40
23377;DHT22;14353;46.070;13.222;2023-08-24T11:58:20;35.90;44.40
23377;DHT22;14353;46.070;13.222;2023-08-24T12:00:46;36.00;44.40
23377;DHT22;14353;46.070;13.222;2023-08-24T12:03:12;36.00;44.40
23377;DHT22;14353;46.070;13.222;2023-08-24T12:05:39;36.00;44.30
23377;DHT22;14353;46.070;13.222;2023-08-24T12:08:05;36.00;44.30
23377;DHT22;14353;46.070;13.222;2023-08-24T12:10:31;36.00;44.30
23377;DHT22;14353;46.070;13.222;2023-08-24T12:13:04;36.00;44.20
23377;DHT22;14353;46.070;13.222;2023-08-24T12:15:36;36.00;44.10
23377;DHT22;14353;46.070;13.222;2023-08-24T12:18:13;36.10;44.10
23377;DHT22;14353;46.070;13.222;2023-08-24T12:20:42;36.10;44.10
23377;DHT22;14353;46.070;13.222;2023-08-24T12:23:10;36.10;44.10
23377;DHT22;14353;46.070;13.222;2023-08-24T12:25:37;36.10;44.00
23377;DHT22;14353;46.070;13.222;2023-08-24T12:28:14;36.20;44.00
23377;DHT22;14353;46.070;13.222;2023-08-24T12:30:50;36.20;44.00
23377;DHT22;14353;46.070;13.222;2023-08-24T12:35:52;36.30;43.90
23377;DHT22;14353;46.070;13.222;2023-08-24T12:38:19;36.30;43.90
23377;DHT22;14353;46.070;13.222;2023-08-24T12:40:44;36.30;43.80
23377;DHT22;14353;46.070;13.222;2023-08-24T12:43:10;36.30;43.80
23377;DHT22;14353;46.070;13.222;2023-08-24T12:45:36;36.40;43.80
23377;DHT22;14353;46.070;13.222;2023-08-24T12:48:04;36.40;43.80
23377;DHT22;14353;46.070;13.222;2023-08-24T12:50:29;36.40;43.70
23377;DHT22;14353;46.070;13.222;2023-08-24T12:52:55;36.40;43.70
23377;DHT22;14353;46.070;13.222;2023-08-24T12:55:25;36.40;43.70
23377;DHT22;14353;46.070;13.222;2023-08-24T12:57:51;36.50;43.70
23377;DHT22;14353;46.070;13.222;2023-08-24T13:00:18;36.50;43.70
23377;DHT22;14353;46.070;13.222;2023-08-24T13:02:44;36.50;43.60
23377;DHT22;14353;46.070;13.222;2023-08-24T13:05:10;36.50;43.60
23377;DHT22;14353;46.070;13.222;2023-08-24T13:07:36;36.60;43.70
23377;DHT22;14353;46.070;13.222;2023-08-24T13:10:03;36.60;43.60
23377;DHT22;14353;46.070;13.222;2023-08-24T13:12:29;36.60;43.60
23377;DHT22;14353;46.070;13.222;2023-08-24T13:14:55;36.60;43.50
23377;DHT22;14353;46.070;13.222;2023-08-24T13:17:21;36.60;43.50
23377;DHT22;14353;46.070;13.222;2023-08-24T13:19:46;36.70;43.50
23377;DHT22;14353;46.070;13.222;2023-08-24T13:22:14;36.70;43.50
23377;DHT22;14353;46.070;13.222;2023-08-24T13:24:40;36.70;43.50
23377;DHT22;14353;46.070;13.222;2023-08-24T13:27:08;36.70;43.40
23377;DHT22;14353;46.070;13.222;2023-08-24T13:29:36;36.70;43.40
23377;DHT22;14353;46.070;13.222;2023-08-24T13:32:03;36.70;43.30
23377;DHT22;14353;46.070;13.222;2023-08-24T13:34:28;36.70;43.30
23377;DHT22;14353;46.070;13.222;2023-08-24T13:36:54;36.70;43.30
23377;DHT22;14353;46.070;13.222;2023-08-24T13:39:20;36.80;43.30
23377;DHT22;14353;46.070;13.222;2023-08-24T13:41:45;36.80;43.30
23377;DHT22;14353;46.070;13.222;2023-08-24T13:44:11;36.80;43.30
23377;DHT22;14353;46.070;13.222;2023-08-24T13:46:37;36.80;43.30
23377;DHT22;14353;46.070;13.222;2023-08-24T13:49:02;36.80;43.20
23377;DHT22;14353;46.070;13.222;2023-08-24T13:51:28;36.90;43.30
23377;DHT22;14353;46.070;13.222;2023-08-24T13:53:54;36.90;43.30
23377;DHT22;14353;46.070;13.222;2023-08-24T13:56:20;36.90;43.20
23377;DHT22;14353;46.070;13.222;2023-08-24T13:58:46;36.90;43.20
23377;DHT22;14353;46.070;13.222;2023-08-24T14:01:12;36.90;43.10
23377;DHT22;14353;46.070;13.222;2023-08-24T14:03:39;36.90;43.10
23377;DHT22;14353;46.070;13.222;2023-08-24T14:06:05;37.00;43.10
23377;DHT22;14353;46.070;13.222;2023-08-24T14:08:31;37.00;43.10
23377;DHT22;14353;46.070;13.222;2023-08-24T14:10:57;37.00;43.10
23377;DHT22;14353;46.070;13.222;2023-08-24T14:13:22;37.00;43.10
23377;DHT22;14353;46.070;13.222;2023-08-24T14:15:50;37.00;43.10
23377;DHT22;14353;46.070;13.222;2023-08-24T14:18:16;37.00;43.00
23377;DHT22;14353;46.070;13.222;2023-08-24T14:20:43;37.00;43.00
23377;DHT22;14353;46.070;13.222;2023-08-24T14:23:09;37.10;43.00
23377;DHT22;14353;46.070;13.222;2023-08-24T14:25:34;37.10;42.90
23377;DHT22;14353;46.070;13.222;2023-08-24T14:28:00;37.10;43.00
23377;DHT22;14353;46.070;13.222;2023-08-24T14:30:26;37.10;42.90
23377;DHT22;14353;46.070;13.222;2023-08-24T14:32:52;37.10;43.00
23377;DHT22;14353;46.070;13.222;2023-08-24T14:35:17;37.10;42.90
23377;DHT22;14353;46.070;13.222;2023-08-24T14:37:43;37.10;42.90
23377;DHT22;14353;46.070;13.222;2023-08-24T14:40:09;37.10;42.90
23377;DHT22;14353;46.070;13.222;2023-08-24T14:42:35;37.10;42.90
23377;DHT22;14353;46.070;13.222;2023-08-24T14:45:01;37.10;42.90
23377;DHT22;14353;46.070;13.222;2023-08-24T14:47:27;37.10;42.90
23377;DHT22;14353;46.070;13.222;2023-08-24T14:49:53;37.20;42.90
23377;DHT22;14353;46.070;13.222;2023-08-24T14:52:18;37.20;42.90
23377;DHT22;14353;46.070;13.222;2023-08-24T14:54:44;37.20;42.90
23377;DHT22;14353;46.070;13.222;2023-08-24T14:57:10;37.20;42.90
23377;DHT22;14353;46.070;13.222;2023-08-24T14:59:36;37.20;42.90
23377;DHT22;14353;46.070;13.222;2023-08-24T15:02:02;37.20;42.90
23377;DHT22;14353;46.070;13.222;2023-08-24T15:04:28;37.20;42.80
23377;DHT22;14353;46.070;13.222;2023-08-24T15:06:54;37.20;42.90
23377;DHT22;14353;46.070;13.222;2023-08-24T15:09:19;37.30;42.90
23377;DHT22;14353;46.070;13.222;2023-08-24T15:11:45;37.30;42.90
23377;DHT22;14353;46.070;13.222;2023-08-24T15:14:11;37.30;42.90
23377;DHT22;14353;46.070;13.222;2023-08-24T15:16:36;37.30;42.90
23377;DHT22;14353;46.070;13.222;2023-08-24T15:19:02;37.30;42.90
23377;DHT22;14353;46.070;13.222;2023-08-24T15:21:28;37.30;42.80
23377;DHT22;14353;46.070;13.222;2023-08-24T15:23:54;37.30;42.80
23377;DHT22;14353;46.070;13.222;2023-08-24T15:26:20;37.40;42.80
23377;DHT22;14353;46.070;13.222;2023-08-24T15:29:14;37.40;42.80
23377;DHT22;14353;46.070;13.222;2023-08-24T15:31:44;37.40;42.80
23377;DHT22;14353;46.070;13.222;2023-08-24T15:34:10;37.40;42.80
23377;DHT22;14353;46.070;13.222;2023-08-24T15:36:36;37.50;42.80
23377;DHT22;14353;46.070;13.222;2023-08-24T15:39:02;37.40;42.70